Time;durP1;ratioP1;P1;durP2;ratioP2;P2;SDS_P1;SDS_P2;PMS_P1;PMS_P2;Temp;Humidity;BMP_temperature;BMP_pressure;BME280_temperature;BME280_humidity;BME280_pressure;Samples;Min_cycle;Max_cycle;Signal;HPM_P1;HPM_P2
2021/08/24 00:00:18;;;;;;;7.80;6.28;;;17.20;99.90;;;;;;5036228;28;20661;-73
2021/08/24 00:02:45;;;;;;;7.30;6.47;;;17.20;99.90;;;;;;5036653;28;20226;-73
2021/08/24 00:05:13;;;;;;;7.50;6.40;;;17.10;99.90;;;;;;5036232;28;20305;-72
2021/08/24 00:07:40;;;;;;;8.15;6.60;;;17.10;99.90;;;;;;5036533;28;20203;-72
2021/08/24 00:10:08;;;;;;;6.50;5.90;;;17.10;99.90;;;;;;5036093;28;20204;-72
2021/08/24 00:12:35;;;;;;;7.22;6.22;;;17.20;99.90;;;;;;5035823;28;20235;-72
2021/08/24 00:15:05;;;;;;;6.72;5.95;;;17.20;99.90;;;;;;5035555;28;20204;-73
2021/08/24 00:17:32;;;;;;;7.32;5.55;;;17.20;99.90;;;;;;5036025;28;20208;-72
2021/08/24 00:19:59;;;;;;;7.95;6.18;;;17.20;99.90;;;;;;5036229;28;20730;-72
2021/08/24 00:22:26;;;;;;;7.15;5.90;;;17.20;99.90;;;;;;5035775;28;20311;-72
2021/08/24 00:24:52;;;;;;;7.38;5.82;;;17.20;99.90;;;;;;5035724;28;20295;-72
2021/08/24 00:27:19;;;;;;;7.32;6.43;;;17.10;99.90;;;;;;5035752;28;20298;-72
2021/08/24 00:29:46;;;;;;;7.18;6.47;;;17.10;99.90;;;;;;5035810;28;20294;-72
2021/08/24 00:32:14;;;;;;;7.38;6.65;;;17.10;99.90;;;;;;5035866;28;20231;-72
2021/08/24 00:34:41;;;;;;;7.38;6.35;;;17.10;99.90;;;;;;5036318;28;20290;-72
2021/08/24 00:37:08;;;;;;;7.93;6.85;;;17.10;99.90;;;;;;5035885;28;20295;-72
2021/08/24 00:39:35;;;;;;;6.72;6.10;;;17.00;99.90;;;;;;5035661;28;20291;-72
2021/08/24 00:42:01;;;;;;;7.38;6.35;;;17.00;99.90;;;;;;5035505;28;20252;-72
2021/08/24 00:44:30;;;;;;;10.65;7.88;;;16.90;99.90;;;;;;5035748;28;20204;-72
2021/08/24 00:46:59;;;;;;;7.47;6.50;;;16.80;99.90;;;;;;5035243;28;20210;-72
2021/08/24 00:49:30;;;;;;;7.07;6.30;;;16.90;99.90;;;;;;5035840;28;20208;-72
2021/08/24 00:52:02;;;;;;;7.10;6.25;;;16.80;99.90;;;;;;5035391;28;20224;-72
2021/08/24 00:54:29;;;;;;;7.13;6.43;;;16.80;99.90;;;;;;5035271;28;20311;-72
2021/08/24 00:56:59;;;;;;;8.25;6.90;;;16.80;99.90;;;;;;5035173;28;20303;-72
2021/08/24 00:59:27;;;;;;;6.82;6.05;;;16.70;99.90;;;;;;5035496;28;20659;-72
2021/08/24 01:01:54;;;;;;;7.13;6.43;;;16.60;99.90;;;;;;5035157;28;20222;-72
2021/08/24 01:04:23;;;;;;;8.38;7.53;;;16.50;99.90;;;;;;5035132;28;20295;-72
2021/08/24 01:06:56;;;;;;;7.93;6.68;;;16.30;99.90;;;;;;5034849;28;20243;-72
2021/08/24 01:09:32;;;;;;;8.07;6.45;;;16.20;99.90;;;;;;5035296;28;20346;-72
2021/08/24 01:12:08;;;;;;;8.52;6.95;;;16.00;99.90;;;;;;5035211;28;20231;-72
2021/08/24 01:14:46;;;;;;;8.95;6.95;;;15.90;99.90;;;;;;5035636;28;20185;-72
2021/08/24 01:17:16;;;;;;;9.25;7.00;;;16.00;99.90;;;;;;5034859;28;20208;-72
2021/08/24 01:20:15;;;;;;;7.95;7.03;;;15.90;99.90;;;;;;5034766;28;20211;-72
2021/08/24 01:23:21;;;;;;;7.00;5.75;;;15.80;99.90;;;;;;5034428;28;20231;-72
2021/08/24 01:25:58;;;;;;;7.30;5.95;;;15.80;99.90;;;;;;5017024;28;20206;-72
2021/08/24 01:28:33;;;;;;;7.90;6.72;;;15.70;99.90;;;;;;5034520;28;20213;-72
2021/08/24 01:31:38;;;;;;;7.20;6.05;;;15.70;99.90;;;;;;5034934;28;20221;-72
2021/08/24 01:34:20;;;;;;;6.03;5.35;;;15.80;99.90;;;;;;5017158;28;20662;-72
2021/08/24 01:36:51;;;;;;;6.30;5.70;;;15.80;99.90;;;;;;5034647;28;20604;-72
2021/08/24 01:39:25;;;;;;;7.85;6.50;;;15.90;99.90;;;;;;5034887;28;20219;-72
2021/08/24 01:42:08;;;;;;;7.78;5.60;;;16.00;99.90;;;;;;5034453;28;20324;-72
2021/08/24 01:44:42;;;;;;;5.93;5.30;;;16.00;99.90;;;;;;5034330;28;20213;-72
2021/08/24 01:47:23;;;;;;;6.10;5.07;;;16.00;99.90;;;;;;5034267;28;20203;-72
2021/08/24 01:49:56;;;;;;;6.13;5.50;;;16.10;99.90;;;;;;5034679;28;20611;-72
2021/08/24 01:52:31;;;;;;;5.93;4.93;;;16.10;99.90;;;;;;5034268;28;20234;-72
2021/08/24 01:55:02;;;;;;;5.30;4.80;;;16.20;99.90;;;;;;5034131;28;20294;-72
2021/08/24 01:57:35;;;;;;;5.35;4.70;;;16.30;99.90;;;;;;5034445;28;20298;-72
2021/08/24 02:00:07;;;;;;;5.45;4.65;;;16.30;99.90;;;;;;5034480;28;20213;-72
2021/08/24 02:02:38;;;;;;;6.38;5.53;;;16.30;99.90;;;;;;5034382;28;20234;-72
2021/08/24 02:05:09;;;;;;;6.30;5.70;;;16.20;99.90;;;;;;5033916;28;20243;-72
2021/08/24 02:07:38;;;;;;;4.55;4.00;;;16.10;99.90;;;;;;5034184;28;20289;-72
2021/08/24 02:10:09;;;;;;;5.22;4.72;;;16.20;99.90;;;;;;5034210;28;20204;-72
2021/08/24 02:12:40;;;;;;;5.18;4.68;;;16.10;99.90;;;;;;5033607;28;20250;-72
2021/08/24 02:15:08;;;;;;;5.68;4.60;;;16.10;99.90;;;;;;5033711;28;20195;-72
2021/08/24 02:17:36;;;;;;;4.80;4.30;;;16.10;99.90;;;;;;5033632;28;20263;-72
2021/08/24 02:20:10;;;;;;;5.82;4.40;;;16.10;99.90;;;;;;5033788;28;20214;-72
2021/08/24 02:22:42;;;;;;;4.63;4.18;;;16.10;99.90;;;;;;5034255;28;20234;-72
2021/08/24 02:25:12;;;;;;;4.15;3.75;;;16.10;99.90;;;;;;5033770;28;20207;-72
2021/08/24 02:27:44;;;;;;;4.20;3.80;;;16.10;99.90;;;;;;5033735;28;20218;-72
2021/08/24 02:30:12;;;;;;;4.82;4.32;;;16.00;99.90;;;;;;5033599;28;20688;-72
2021/08/24 02:32:44;;;;;;;5.35;4.40;;;16.00;99.90;;;;;;5033915;28;20226;-72
2021/08/24 02:35:22;;;;;;;4.43;4.03;;;15.80;99.90;;;;;;5033565;28;20207;-72
2021/08/24 02:37:53;;;;;;;5.13;4.25;;;15.70;99.90;;;;;;5033818;28;20293;-72
2021/08/24 02:40:26;;;;;;;5.05;4.55;;;15.70;99.90;;;;;;5033673;28;20220;-72
2021/08/24 02:42:58;;;;;;;4.63;4.18;;;15.70;99.90;;;;;;5033992;28;20309;-72
2021/08/24 02:45:32;;;;;;;4.10;3.70;;;15.70;99.90;;;;;;5033283;28;20687;-72
2021/08/24 02:48:01;;;;;;;4.72;4.22;;;15.70;99.90;;;;;;5034060;28;20219;-72
2021/08/24 02:50:28;;;;;;;5.53;4.53;;;15.80;99.90;;;;;;5033899;28;20301;-72
2021/08/24 02:52:58;;;;;;;4.28;3.88;;;15.70;99.90;;;;;;5033492;28;20237;-72
2021/08/24 02:55:25;;;;;;;4.90;4.03;;;15.60;99.90;;;;;;5033463;28;20309;-72
2021/08/24 02:57:52;;;;;;;6.45;5.20;;;15.60;99.90;;;;;;5033356;28;20218;-72
2021/08/24 03:00:19;;;;;;;6.22;4.82;;;15.60;99.90;;;;;;5033738;28;20297;-72
2021/08/24 03:02:45;;;;;;;5.60;4.38;;;15.50;99.90;;;;;;5033739;28;20281;-72
2021/08/24 03:05:12;;;;;;;5.20;4.03;;;15.50;99.90;;;;;;5032930;28;20206;-72
2021/08/24 03:07:41;;;;;;;5.30;4.80;;;15.50;99.90;;;;;;5033067;28;20249;-72
2021/08/24 03:10:13;;;;;;;5.68;4.32;;;15.50;99.90;;;;;;5033492;28;20209;-72
2021/08/24 03:12:49;;;;;;;5.00;4.00;;;15.40;99.90;;;;;;5033347;28;20227;-72
2021/08/24 03:15:21;;;;;;;6.60;4.15;;;15.40;99.90;;;;;;5033302;28;20206;-72
2021/08/24 03:17:53;;;;;;;5.25;4.75;;;15.40;99.90;;;;;;5033367;28;20548;-72
2021/08/24 03:20:23;;;;;;;5.82;5.00;;;15.20;99.90;;;;;;5033442;28;20211;-72
2021/08/24 03:22:51;;;;;;;5.20;4.47;;;15.20;99.90;;;;;;5033280;28;20712;-72
2021/08/24 03:25:20;;;;;;;5.28;4.78;;;15.10;99.90;;;;;;5033176;28;20253;-72
2021/08/24 03:27:51;;;;;;;5.28;4.53;;;15.10;99.90;;;;;;5033510;28;20756;-72
2021/08/24 03:30:19;;;;;;;5.13;4.70;;;15.10;99.90;;;;;;5033011;28;20213;-72
2021/08/24 03:32:46;;;;;;;5.63;5.00;;;15.10;99.90;;;;;;5033247;28;20625;-72
2021/08/24 03:35:15;;;;;;;6.50;5.30;;;15.10;99.90;;;;;;5032960;28;20214;-72
2021/08/24 03:37:43;;;;;;;5.30;4.70;;;15.10;99.90;;;;;;5033325;28;20206;-72
2021/08/24 03:40:12;;;;;;;8.73;4.70;;;15.00;99.90;;;;;;5033503;28;20203;-72
2021/08/24 03:42:40;;;;;;;6.30;4.47;;;15.00;99.90;;;;;;5032756;28;20640;-72
2021/08/24 03:45:09;;;;;;;6.93;5.35;;;15.00;99.90;;;;;;5032792;28;20204;-72
2021/08/24 03:47:35;;;;;;;6.05;5.45;;;14.90;99.90;;;;;;5033171;28;20297;-72
2021/08/24 03:50:03;;;;;;;5.00;4.50;;;14.90;99.90;;;;;;5034046;28;20241;-72
2021/08/24 03:52:30;;;;;;;5.10;4.60;;;14.90;99.90;;;;;;5036625;28;20313;-72
2021/08/24 03:54:57;;;;;;;6.28;5.32;;;14.80;99.90;;;;;;5035969;28;20245;-72
2021/08/24 03:57:23;;;;;;;7.53;5.18;;;14.80;99.90;;;;;;5036473;28;20216;-72
2021/08/24 03:59:56;;;;;;;6.00;5.25;;;14.80;99.90;;;;;;5036275;28;20673;-72
2021/08/24 04:02:23;;;;;;;5.30;4.80;;;14.80;99.90;;;;;;5036428;28;20260;-72
2021/08/24 04:04:50;;;;;;;6.60;5.90;;;14.90;99.90;;;;;;5036411;28;20213;-72
2021/08/24 04:07:17;;;;;;;6.50;4.90;;;14.80;99.90;;;;;;5036663;28;20561;-72
2021/08/24 04:09:44;;;;;;;6.80;5.97;;;14.90;99.90;;;;;;5036005;28;20209;-72
2021/08/24 04:12:13;;;;;;;6.72;5.90;;;14.90;99.90;;;;;;5035908;28;20257;-72
2021/08/24 04:14:40;;;;;;;8.60;5.65;;;14.90;99.90;;;;;;5036123;28;20208;-72
2021/08/24 04:17:09;;;;;;;8.95;5.65;;;14.90;99.90;;;;;;5035957;28;20668;-72
2021/08/24 04:19:35;;;;;;;5.97;5.20;;;14.80;99.90;;;;;;5036419;28;20302;-72
2021/08/24 04:22:06;;;;;;;6.18;4.72;;;14.80;99.90;;;;;;5035975;28;20279;-72
2021/08/24 04:24:33;;;;;;;7.00;5.10;;;14.70;99.90;;;;;;5035793;28;20710;-72
2021/08/24 04:27:00;;;;;;;5.60;4.57;;;14.60;99.90;;;;;;5035885;28;20297;-72
2021/08/24 04:29:27;;;;;;;6.28;5.50;;;14.70;99.90;;;;;;5036062;28;20292;-72
2021/08/24 04:31:54;;;;;;;5.53;4.93;;;14.60;99.90;;;;;;5036008;28;20316;-72
2021/08/24 04:34:22;;;;;;;5.15;4.65;;;14.60;99.90;;;;;;5036346;28;20235;-72
2021/08/24 04:36:49;;;;;;;6.57;5.10;;;14.60;99.90;;;;;;5035530;28;20292;-72
2021/08/24 04:39:16;;;;;;;5.80;5.20;;;14.60;99.90;;;;;;5035658;28;20297;-72
2021/08/24 04:41:42;;;;;;;7.80;6.20;;;14.60;99.90;;;;;;5035390;28;20221;-72
2021/08/24 04:44:09;;;;;;;8.93;6.75;;;14.60;99.90;;;;;;5035692;28;20208;-72
2021/08/24 04:46:36;;;;;;;6.63;5.30;;;14.60;99.90;;;;;;5035688;28;20202;-72
2021/08/24 04:49:03;;;;;;;5.88;5.03;;;14.60;99.90;;;;;;5035900;28;20610;-72
2021/08/24 04:51:31;;;;;;;6.45;5.70;;;14.50;99.90;;;;;;5035184;28;20317;-72
2021/08/24 04:53:58;;;;;;;5.88;5.30;;;14.60;99.90;;;;;;5035188;28;20318;-72
2021/08/24 04:56:25;;;;;;;6.38;5.25;;;14.60;99.90;;;;;;5035350;28;20206;-72
2021/08/24 04:58:52;;;;;;;6.20;5.60;;;14.60;99.90;;;;;;5035537;28;20212;-72
2021/08/24 05:01:19;;;;;;;7.00;5.70;;;14.60;99.90;;;;;;5034557;28;20334;-72
2021/08/24 05:03:45;;;;;;;7.07;5.20;;;14.60;99.90;;;;;;5035416;28;20207;-72
2021/08/24 05:06:12;;;;;;;7.20;5.60;;;14.60;99.90;;;;;;5035027;28;20288;-72
2021/08/24 05:08:40;;;;;;;6.22;5.63;;;14.60;99.90;;;;;;5034806;28;20669;-72
2021/08/24 05:11:07;;;;;;;6.30;5.20;;;14.70;99.90;;;;;;5035143;28;20295;-72
2021/08/24 05:13:34;;;;;;;8.75;5.88;;;14.70;99.90;;;;;;5035457;28;20311;-72
2021/08/24 05:16:06;;;;;;;6.45;5.60;;;14.70;99.90;;;;;;5034645;28;20223;-72
2021/08/24 05:18:33;;;;;;;10.07;6.55;;;14.60;99.90;;;;;;5034719;28;20206;-72
2021/08/24 05:21:03;;;;;;;9.15;6.20;;;14.60;99.90;;;;;;5034900;28;20300;-72
2021/08/24 05:23:29;;;;;;;7.18;6.03;;;14.60;99.90;;;;;;5035178;28;20205;-72
2021/08/24 05:25:58;;;;;;;7.60;6.07;;;14.70;99.90;;;;;;5034437;28;20205;-72
2021/08/24 05:28:24;;;;;;;8.25;6.00;;;14.60;99.90;;;;;;5035087;28;20300;-72
2021/08/24 05:30:51;;;;;;;6.80;6.10;;;14.70;99.90;;;;;;5034600;28;20231;-72
2021/08/24 05:33:18;;;;;;;8.55;6.53;;;14.80;99.90;;;;;;5034446;28;20736;-72
2021/08/24 05:35:45;;;;;;;8.40;6.85;;;14.80;99.90;;;;;;5034517;28;20202;-72
2021/08/24 05:38:12;;;;;;;6.82;6.13;;;14.90;99.90;;;;;;5034620;28;20728;-72
2021/08/24 05:40:39;;;;;;;8.25;6.47;;;14.90;99.90;;;;;;5034758;28;20301;-72
2021/08/24 05:43:07;;;;;;;8.40;7.47;;;14.90;99.90;;;;;;5035029;28;20249;-72
2021/08/24 05:45:34;;;;;;;9.23;7.57;;;14.90;99.90;;;;;;5034060;28;20201;-72
2021/08/24 05:48:00;;;;;;;9.15;7.57;;;14.80;99.90;;;;;;5034447;28;20241;-72
2021/08/24 05:50:27;;;;;;;8.80;7.63;;;14.80;99.90;;;;;;5034281;28;20292;-72
2021/08/24 05:52:54;;;;;;;10.00;8.30;;;14.70;99.90;;;;;;5034595;28;20257;-72
2021/08/24 05:55:21;;;;;;;9.45;7.60;;;14.70;99.90;;;;;;5034186;28;20234;-72
2021/08/24 05:57:48;;;;;;;9.23;7.10;;;14.70;99.90;;;;;;5034528;28;20237;-72
2021/08/24 06:00:16;;;;;;;11.57;9.10;;;14.70;99.90;;;;;;5034067;28;20209;-72
2021/08/24 06:02:43;;;;;;;9.75;7.68;;;14.60;99.90;;;;;;5034233;28;20225;-72
2021/08/24 06:05:11;;;;;;;11.93;8.23;;;14.70;99.90;;;;;;5033625;28;20722;-72
2021/08/24 06:07:38;;;;;;;11.07;8.18;;;14.70;99.90;;;;;;5034277;28;20210;-72
2021/08/24 06:10:06;;;;;;;11.57;8.25;;;14.70;99.90;;;;;;5034344;28;20661;-72
2021/08/24 06:12:33;;;;;;;10.77;8.38;;;14.70;99.90;;;;;;5033388;28;20225;-72
2021/08/24 06:15:00;;;;;;;10.55;7.78;;;14.70;99.90;;;;;;5033724;28;20201;-72
2021/08/24 06:17:28;;;;;;;12.73;8.25;;;14.70;99.90;;;;;;5033836;28;20546;-72
2021/08/24 06:19:55;;;;;;;10.32;8.02;;;14.80;99.90;;;;;;5033970;28;20690;-72
2021/08/24 06:22:22;;;;;;;8.80;7.50;;;14.90;99.90;;;;;;5033585;28;20324;-72
2021/08/24 06:24:49;;;;;;;9.95;7.55;;;14.90;99.90;;;;;;5033947;28;20293;-72
2021/08/24 06:27:16;;;;;;;10.40;7.65;;;14.90;99.90;;;;;;5033768;28;20208;-72
2021/08/24 06:29:43;;;;;;;10.02;8.55;;;14.80;99.90;;;;;;5033856;28;20210;-72
2021/08/24 06:32:22;;;;;;;9.60;7.45;;;14.80;99.90;;;;;;5033660;28;20316;-72
2021/08/24 06:34:50;;;;;;;10.43;6.97;;;14.90;99.90;;;;;;5033755;28;20228;-72
2021/08/24 06:37:17;;;;;;;7.93;6.65;;;14.80;99.90;;;;;;5033870;28;20735;-72
2021/08/24 06:39:44;;;;;;;8.48;6.35;;;14.80;99.90;;;;;;5033574;28;20297;-72
2021/08/24 06:42:11;;;;;;;8.13;6.20;;;14.80;99.90;;;;;;5033733;28;20281;-72
2021/08/24 06:44:38;;;;;;;8.85;6.70;;;14.90;99.90;;;;;;5033621;28;20267;-72
2021/08/24 06:47:05;;;;;;;7.93;6.68;;;14.80;99.90;;;;;;5033634;28;20291;-72
2021/08/24 06:49:32;;;;;;;9.02;6.10;;;14.90;99.90;;;;;;5033850;28;20212;-72
2021/08/24 06:52:03;;;;;;;7.55;6.38;;;15.00;99.90;;;;;;5033369;28;20233;-72
2021/08/24 06:54:30;;;;;;;9.23;7.32;;;15.10;99.90;;;;;;5033459;28;20233;-72
2021/08/24 06:56:57;;;;;;;7.63;6.20;;;15.10;99.90;;;;;;5033426;28;20628;-72
2021/08/24 06:59:24;;;;;;;11.85;6.57;;;15.10;99.90;;;;;;5033455;28;20218;-72
2021/08/24 07:01:51;;;;;;;7.55;5.97;;;15.10;99.90;;;;;;5033364;28;20685;-72
2021/08/24 07:04:18;;;;;;;6.95;6.20;;;15.10;99.90;;;;;;5033786;28;20205;-72
2021/08/24 07:06:50;;;;;;;7.00;6.30;;;15.20;99.90;;;;;;5032939;28;20297;-72
2021/08/24 07:09:18;;;;;;;7.25;5.40;;;15.30;99.90;;;;;;5033048;28;20665;-72
2021/08/24 07:11:45;;;;;;;5.50;4.65;;;15.30;99.90;;;;;;5033453;28;20234;-72
2021/08/24 07:14:12;;;;;;;7.05;5.82;;;15.20;99.90;;;;;;5032938;28;20222;-72
2021/08/24 07:16:43;;;;;;;5.57;5.03;;;15.20;99.90;;;;;;5032901;28;20301;-72
2021/08/24 07:19:10;;;;;;;10.45;4.60;;;15.20;99.90;;;;;;5033665;28;20247;-72
2021/08/24 07:21:37;;;;;;;6.47;4.50;;;15.20;99.90;;;;;;5033304;28;20227;-72
2021/08/24 07:24:04;;;;;;;5.25;4.50;;;15.20;99.90;;;;;;5033352;28;20210;-72
2021/08/24 07:26:33;;;;;;;5.80;5.18;;;15.20;99.90;;;;;;5036624;28;20292;-72
2021/08/24 07:28:59;;;;;;;5.30;4.80;;;15.10;99.90;;;;;;5031057;28;20298;-72
2021/08/24 07:31:28;;;;;;;6.38;4.85;;;15.10;99.90;;;;;;5033017;28;20230;-73
2021/08/24 07:33:55;;;;;;;5.55;4.47;;;15.10;99.90;;;;;;5035854;28;20363;-73
2021/08/24 07:36:22;;;;;;;4.82;4.32;;;15.20;99.90;;;;;;5035356;28;20571;-72
2021/08/24 07:38:49;;;;;;;5.72;4.97;;;15.20;99.90;;;;;;5035455;28;20291;-72
2021/08/24 07:41:16;;;;;;;4.93;4.18;;;15.30;99.90;;;;;;5035241;28;20313;-73
2021/08/24 07:43:44;;;;;;;7.05;5.00;;;15.30;99.90;;;;;;5035502;28;20241;-73
2021/08/24 07:46:11;;;;;;;6.00;5.40;;;15.40;99.90;;;;;;5035171;28;20292;-73
2021/08/24 07:48:38;;;;;;;6.05;4.30;;;15.40;99.90;;;;;;5035354;28;20303;-73
2021/08/24 07:51:04;;;;;;;6.03;5.43;;;15.50;99.90;;;;;;5035314;28;20301;-73
2021/08/24 07:53:31;;;;;;;5.55;4.80;;;15.40;99.90;;;;;;5035091;28;20763;-73
2021/08/24 07:55:58;;;;;;;8.48;5.07;;;15.40;99.90;;;;;;5035158;28;20292;-73
2021/08/24 07:58:25;;;;;;;5.15;4.65;;;15.50;99.90;;;;;;5035194;28;20206;-73
2021/08/24 08:00:53;;;;;;;6.82;5.18;;;15.60;99.90;;;;;;5035046;28;20293;-73
2021/08/24 08:03:20;;;;;;;6.05;4.90;;;15.70;99.90;;;;;;5035206;28;20229;-72
2021/08/24 08:05:48;;;;;;;6.75;5.75;;;15.80;99.90;;;;;;5035177;28;20218;-73
2021/08/24 08:08:15;;;;;;;4.60;4.20;;;15.90;99.90;;;;;;5035322;28;20216;-72
2021/08/24 08:10:42;;;;;;;5.70;4.38;;;15.90;99.90;;;;;;5034905;28;20207;-72
2021/08/24 08:13:10;;;;;;;5.72;4.65;;;15.90;99.90;;;;;;5034641;28;20314;-73
2021/08/24 08:15:37;;;;;;;4.70;4.30;;;15.90;99.90;;;;;;5035020;28;20237;-77
2021/08/24 08:18:07;;;;;;;4.95;4.43;;;16.10;99.90;;;;;;5035079;28;20626;-74
2021/08/24 08:20:34;;;;;;;6.50;5.25;;;16.40;99.90;;;;;;5034647;28;20793;-73
2021/08/24 08:23:04;;;;;;;5.45;4.70;;;16.50;99.90;;;;;;5035685;28;20693;-70
2021/08/24 08:25:31;;;;;;;4.70;4.22;;;16.50;99.90;;;;;;5035796;28;20666;-70
2021/08/24 08:27:58;;;;;;;5.85;4.00;;;16.60;99.90;;;;;;5036219;28;20306;-70
2021/08/24 08:30:25;;;;;;;4.85;3.50;;;16.80;99.90;;;;;;5035660;28;20299;-70
2021/08/24 08:32:52;;;;;;;4.00;3.25;;;16.80;99.90;;;;;;5036044;28;20316;-70
2021/08/24 08:35:20;;;;;;;3.83;3.53;;;16.70;99.90;;;;;;5035298;28;20722;-71
2021/08/24 08:37:47;;;;;;;4.60;4.15;;;16.70;99.90;;;;;;5035920;28;20599;-70
2021/08/24 08:40:16;;;;;;;3.92;3.58;;;16.80;99.90;;;;;;5036052;28;20214;-70
2021/08/24 08:42:53;;;;;;;4.38;3.80;;;16.70;99.90;;;;;;5035670;28;20311;-70
2021/08/24 08:45:26;;;;;;;5.00;4.30;;;16.90;99.90;;;;;;5035207;28;20722;-70
2021/08/24 08:48:06;;;;;;;4.78;3.97;;;17.00;99.90;;;;;;5035659;28;20643;-71
2021/08/24 08:50:41;;;;;;;4.97;3.83;;;17.10;99.90;;;;;;5035877;28;20207;-70
2021/08/24 08:53:12;;;;;;;4.15;3.75;;;17.30;99.90;;;;;;5035389;28;20227;-70
2021/08/24 08:55:47;;;;;;;5.05;3.90;;;17.30;99.90;;;;;;5035264;28;20235;-71
2021/08/24 08:58:31;;;;;;;8.15;5.25;;;17.20;99.90;;;;;;5035145;28;20208;-70
2021/08/24 09:01:04;;;;;;;4.90;4.32;;;17.00;99.90;;;;;;5035168;28;20287;-70
2021/08/24 09:03:46;;;;;;;6.25;4.70;;;16.80;99.90;;;;;;5035283;28;20226;-70
2021/08/24 09:06:16;;;;;;;5.35;4.82;;;16.80;99.90;;;;;;5035234;28;20215;-70
2021/08/24 09:08:43;;;;;;;5.68;4.75;;;16.80;99.90;;;;;;5035316;28;20201;-70
2021/08/24 09:11:10;;;;;;;5.60;4.53;;;16.70;99.90;;;;;;5035297;28;20210;-70
2021/08/24 09:13:45;;;;;;;7.03;4.72;;;16.80;99.90;;;;;;5035582;28;20213;-71
2021/08/24 09:16:22;;;;;;;4.30;3.90;;;16.80;99.90;;;;;;5034764;28;20215;-70
2021/08/24 09:18:54;;;;;;;4.28;3.88;;;16.90;99.90;;;;;;5034867;28;20200;-71
2021/08/24 09:21:26;;;;;;;5.03;4.43;;;17.00;99.90;;;;;;5034872;28;20732;-70
2021/08/24 09:23:55;;;;;;;5.82;5.25;;;17.00;99.90;;;;;;5035524;28;20295;-71
2021/08/24 09:26:37;;;;;;;8.30;5.10;;;17.00;99.90;;;;;;5034554;28;20214;-70
2021/08/24 09:29:05;;;;;;;4.60;4.20;;;17.10;99.90;;;;;;5034660;28;20216;-70
2021/08/24 09:31:32;;;;;;;6.00;4.40;;;17.20;99.90;;;;;;5034652;28;20311;-70
2021/08/24 09:33:59;;;;;;;8.35;6.60;;;17.30;99.90;;;;;;5035127;28;20250;-70
2021/08/24 09:36:27;;;;;;;4.95;4.05;;;17.30;99.90;;;;;;5034254;28;20200;-70
2021/08/24 09:38:55;;;;;;;4.07;3.78;;;17.30;99.90;;;;;;5034632;28;20216;-71
2021/08/24 09:41:24;;;;;;;4.10;3.70;;;17.30;99.90;;;;;;5034514;28;20228;-70
2021/08/24 09:43:53;;;;;;;5.28;4.30;;;17.40;99.90;;;;;;5034506;28;20200;-70
2021/08/24 09:46:30;;;;;;;4.00;3.70;;;17.40;99.90;;;;;;5034395;28;20211;-70
2021/08/24 09:49:00;;;;;;;4.10;3.70;;;17.40;99.90;;;;;;5034152;28;20215;-70
2021/08/24 09:51:40;;;;;;;4.30;3.90;;;17.40;99.90;;;;;;5034328;28;20228;-70
2021/08/24 09:54:13;;;;;;;4.75;4.35;;;17.50;99.90;;;;;;5034301;28;20259;-71
2021/08/24 09:56:44;;;;;;;5.30;4.28;;;17.60;99.90;;;;;;5034217;28;20204;-70
2021/08/24 09:59:12;;;;;;;4.78;4.00;;;17.70;99.90;;;;;;5034536;28;20676;-70
2021/08/24 10:01:48;;;;;;;4.38;3.42;;;17.70;99.90;;;;;;5034356;28;20250;-70
2021/08/24 10:04:15;;;;;;;4.60;3.47;;;17.80;99.90;;;;;;5034187;28;20542;-71
2021/08/24 10:06:58;;;;;;;3.95;3.55;;;17.50;99.90;;;;;;5034095;28;20556;-70
2021/08/24 10:09:28;;;;;;;4.15;3.70;;;17.30;99.90;;;;;;5034386;28;20298;-70
2021/08/24 10:12:13;;;;;;;4.35;3.75;;;17.30;99.90;;;;;;5034062;28;20586;-71
2021/08/24 10:14:41;;;;;;;4.88;4.43;;;17.30;99.90;;;;;;5033780;28;20224;-70
2021/08/24 10:17:14;;;;;;;4.00;3.70;;;17.30;99.90;;;;;;5033717;28;20319;-71
2021/08/24 10:19:43;;;;;;;4.90;4.20;;;17.30;99.90;;;;;;5033979;28;20570;-71
2021/08/24 10:22:17;;;;;;;4.28;3.80;;;17.30;99.90;;;;;;5033739;28;20235;-71
2021/08/24 10:24:55;;;;;;;5.13;4.70;;;17.40;99.90;;;;;;5033729;28;20189;-70
2021/08/24 10:27:26;;;;;;;4.40;4.00;;;17.20;99.90;;;;;;5033983;28;20204;-71
2021/08/24 10:29:55;;;;;;;6.63;5.43;;;17.30;99.90;;;;;;5034044;28;20210;-71
2021/08/24 10:32:25;;;;;;;3.97;3.67;;;17.40;99.90;;;;;;5033961;28;20562;-71
2021/08/24 10:34:53;;;;;;;5.05;4.55;;;17.50;99.90;;;;;;5034130;28;20298;-70
2021/08/24 10:37:40;;;;;;;5.05;4.55;;;17.50;99.90;;;;;;5033447;28;20310;-70
2021/08/24 10:40:27;;;;;;;4.40;4.00;;;17.60;99.90;;;;;;5033649;28;20204;-71
2021/08/24 10:43:27;;;;;;;4.32;4.00;;;17.60;99.90;;;;;;5034254;28;20570;-70
2021/08/24 10:46:23;;;;;;;4.20;3.85;;;17.60;99.90;;;;;;5033306;28;20642;-70
2021/08/24 10:48:50;;;;;;;3.92;3.60;;;17.60;99.90;;;;;;5033497;28;20214;-70
2021/08/24 10:51:27;;;;;;;5.53;3.70;;;17.60;99.90;;;;;;5033567;28;20314;-70
2021/08/24 10:54:05;;;;;;;4.53;4.18;;;17.70;99.90;;;;;;5033614;28;20287;-70
2021/08/24 10:56:37;;;;;;;4.85;4.45;;;17.80;99.90;;;;;;5033522;28;20212;-70
2021/08/24 10:59:10;;;;;;;4.00;3.70;;;17.90;99.90;;;;;;5034807;28;20204;-70
2021/08/24 11:01:45;;;;;;;5.15;4.20;;;17.90;99.90;;;;;;5037597;28;20224;-71
2021/08/24 11:05:09;;;;;;;4.35;3.95;;;18.00;99.90;;;;;;5038211;28;20207;-70
2021/08/24 11:07:49;;;;;;;4.20;3.72;;;18.00;99.90;;;;;;4934755;29;20253;-71
2021/08/24 11:10:30;;;;;;;3.80;3.50;;;18.10;99.90;;;;;;5037883;28;20291;-71
2021/08/24 11:13:12;;;;;;;4.72;4.32;;;18.10;99.90;;;;;;5037481;28;20228;-70
2021/08/24 11:15:46;;;;;;;4.63;4.22;;;18.20;99.90;;;;;;5037216;28;20277;-71
2021/08/24 11:18:25;;;;;;;4.30;3.90;;;18.20;99.90;;;;;;5037578;28;20639;-71
2021/08/24 11:20:59;;;;;;;4.10;3.78;;;18.30;99.90;;;;;;5037747;28;20246;-70
2021/08/24 11:23:43;;;;;;;4.68;4.18;;;18.30;99.90;;;;;;5037134;28;20644;-71
2021/08/24 11:26:20;;;;;;;4.18;3.83;;;18.40;99.90;;;;;;5037050;28;20614;-71
2021/08/24 11:28:59;;;;;;;4.60;4.20;;;18.40;99.90;;;;;;5037504;28;20291;-71
2021/08/24 11:31:34;;;;;;;4.90;4.05;;;18.50;99.90;;;;;;5036841;28;20250;-70
2021/08/24 11:34:07;;;;;;;4.10;3.70;;;18.50;99.90;;;;;;5037137;28;20209;-71
2021/08/24 11:36:39;;;;;;;4.35;3.95;;;18.60;99.90;;;;;;5036700;28;20224;-70
2021/08/24 11:39:17;;;;;;;4.28;3.88;;;18.50;99.90;;;;;;5037238;28;20230;-71
2021/08/24 11:41:48;;;;;;;4.72;4.22;;;18.50;99.90;;;;;;5037154;28;20717;-71
2021/08/24 11:44:18;;;;;;;4.50;4.10;;;18.40;99.90;;;;;;5036868;28;20313;-71
2021/08/24 11:46:48;;;;;;;5.80;4.50;;;18.40;99.90;;;;;;5036595;28;20670;-71
2021/08/24 11:49:23;;;;;;;4.20;3.83;;;18.40;99.90;;;;;;5037066;28;20211;-70
2021/08/24 11:51:56;;;;;;;5.38;4.85;;;18.50;99.90;;;;;;5036448;28;20310;-70
2021/08/24 11:54:33;;;;;;;5.78;4.65;;;18.40;99.90;;;;;;5036557;28;20231;-70
2021/08/24 11:57:09;;;;;;;4.63;4.22;;;18.40;99.90;;;;;;5036323;28;20680;-70
2021/08/24 11:59:43;;;;;;;5.55;4.55;;;18.30;99.90;;;;;;5036620;28;20258;-71
2021/08/24 12:02:16;;;;;;;4.25;3.85;;;18.20;99.90;;;;;;5036236;28;20224;-70
2021/08/24 12:04:45;;;;;;;5.53;5.03;;;18.20;99.90;;;;;;5036368;28;20283;-71
2021/08/24 12:07:17;;;;;;;5.25;4.60;;;18.40;99.90;;;;;;5036553;28;20614;-71
2021/08/24 12:09:46;;;;;;;5.00;4.50;;;18.50;99.90;;;;;;5036525;28;20300;-71
2021/08/24 12:12:38;;;;;;;5.20;4.70;;;18.40;99.90;;;;;;5035529;28;20228;-71
2021/08/24 12:15:16;;;;;;;4.60;4.20;;;18.40;99.90;;;;;;5036328;28;20221;-70
2021/08/24 12:17:43;;;;;;;4.45;4.05;;;18.70;99.90;;;;;;5035976;28;20215;-70
2021/08/24 12:20:30;;;;;;;5.20;4.75;;;18.60;99.90;;;;;;5036065;28;20211;-70
2021/08/24 12:23:00;;;;;;;5.50;4.13;;;18.50;99.90;;;;;;5036651;28;20224;-70
2021/08/24 12:25:33;;;;;;;5.13;4.63;;;18.40;99.90;;;;;;5036286;28;20615;-71
2021/08/24 12:28:03;;;;;;;4.93;4.40;;;18.50;99.90;;;;;;5035872;28;20204;-70
2021/08/24 12:30:36;;;;;;;5.00;4.40;;;18.30;99.90;;;;;;5035880;28;20204;-70
2021/08/24 12:33:13;;;;;;;5.82;5.32;;;18.30;99.90;;;;;;5036337;28;20227;-70
2021/08/24 12:35:41;;;;;;;4.90;4.50;;;18.40;99.90;;;;;;5035716;28;20227;-70
2021/08/24 12:38:12;;;;;;;5.13;4.50;;;18.40;99.90;;;;;;5035540;28;20205;-70
2021/08/24 12:40:55;;;;;;;9.18;5.88;;;18.30;99.90;;;;;;5035841;28;20208;-70
2021/08/24 12:43:43;;;;;;;5.47;4.32;;;18.10;99.90;;;;;;5036192;28;20282;-70
2021/08/24 12:46:32;;;;;;;5.50;4.95;;;18.20;99.90;;;;;;5035431;28;20303;-70
2021/08/24 12:49:29;;;;;;;4.65;4.22;;;18.20;99.90;;;;;;5035447;28;20651;-70
2021/08/24 12:51:58;;;;;;;5.18;4.68;;;18.20;99.90;;;;;;5035347;28;20512;-70
2021/08/24 12:54:28;;;;;;;4.80;4.28;;;18.20;99.90;;;;;;5035744;28;20215;-70
2021/08/24 12:57:11;;;;;;;4.60;4.20;;;18.10;99.90;;;;;;5034772;28;20635;-71
2021/08/24 12:59:41;;;;;;;5.50;4.97;;;18.00;99.90;;;;;;5035577;28;20207;-70
2021/08/24 13:02:14;;;;;;;4.60;4.20;;;17.90;99.90;;;;;;5035368;28;20695;-70
2021/08/24 13:04:48;;;;;;;4.40;4.00;;;17.90;99.90;;;;;;5035899;28;20275;-70